createdAt,value
2022-08-19T00:00:39.308Z,18.60
2022-08-19T00:03:08.037Z,18.50
2022-08-19T00:05:35.046Z,18.40
2022-08-19T00:08:02.496Z,18.50
2022-08-19T00:10:29.364Z,18.40
2022-08-19T00:12:56.298Z,18.40
2022-08-19T00:15:23.633Z,18.40
2022-08-19T00:17:50.542Z,18.40
2022-08-19T00:20:21.915Z,18.40
2022-08-19T00:22:49.061Z,18.40
2022-08-19T00:25:17.781Z,18.40
2022-08-19T00:27:44.679Z,18.20
2022-08-19T00:30:12.918Z,18.30
2022-08-19T00:32:40.370Z,18.30
2022-08-19T00:35:08.063Z,18.30
2022-08-19T00:37:36.052Z,18.30
2022-08-19T00:40:06.591Z,18.20
2022-08-19T00:42:33.578Z,18.20
2022-08-19T00:45:00.791Z,18.20
2022-08-19T00:47:27.839Z,18.10
2022-08-19T00:49:59.117Z,18.10
2022-08-19T00:52:40.318Z,18.10
2022-08-19T00:55:12.723Z,18.10
2022-08-19T00:57:45.509Z,18.10
2022-08-19T01:00:19.357Z,18.10
2022-08-19T01:02:46.848Z,18.00
2022-08-19T01:05:21.660Z,18.00
2022-08-19T01:07:51.523Z,18.00
2022-08-19T01:10:24.543Z,17.90
2022-08-19T01:12:55.256Z,17.90
2022-08-19T01:15:32.031Z,17.90
2022-08-19T01:18:05.392Z,17.90
2022-08-19T01:20:34.563Z,17.80
2022-08-19T01:23:03.359Z,17.80
2022-08-19T01:25:44.963Z,17.70
2022-08-19T01:28:19.810Z,17.80
2022-08-19T01:31:00.351Z,17.70
2022-08-19T01:33:27.124Z,17.80
2022-08-19T01:35:53.911Z,17.70
2022-08-19T01:38:27.615Z,17.70
2022-08-19T01:40:54.869Z,17.80
2022-08-19T01:43:21.692Z,17.70
2022-08-19T01:45:48.464Z,17.70
2022-08-19T01:48:16.534Z,17.70
2022-08-19T01:50:44.063Z,17.60
2022-08-19T01:53:12.756Z,17.70
2022-08-19T01:55:43.825Z,17.60
2022-08-19T01:58:21.561Z,17.50
2022-08-19T02:00:48.613Z,17.60
2022-08-19T02:03:16.874Z,17.60
2022-08-19T02:05:46.493Z,17.50
2022-08-19T02:08:13.882Z,17.50
2022-08-19T02:10:44.562Z,17.50
2022-08-19T02:13:14.340Z,17.50
2022-08-19T02:15:41.601Z,17.50
2022-08-19T02:18:09.259Z,17.50
2022-08-19T02:20:37.643Z,17.50
2022-08-19T02:23:05.577Z,17.50
2022-08-19T02:25:40.990Z,17.50
2022-08-19T02:28:08.465Z,17.40
2022-08-19T02:30:35.304Z,17.40
2022-08-19T02:33:02.129Z,17.40
2022-08-19T02:35:28.891Z,17.40
2022-08-19T02:38:14.284Z,17.40
2022-08-19T02:40:41.135Z,17.40
2022-08-19T02:43:09.685Z,17.40
2022-08-19T02:45:40.500Z,17.40
2022-08-19T02:48:17.917Z,17.30
2022-08-19T02:50:55.933Z,17.30
2022-08-19T02:53:25.739Z,17.30
2022-08-19T02:55:52.845Z,17.20
2022-08-19T02:58:22.149Z,17.30
2022-08-19T03:00:56.888Z,17.30
2022-08-19T03:03:24.461Z,17.20
2022-08-19T03:05:56.093Z,17.20
2022-08-19T03:08:26.354Z,17.20
2022-08-19T03:10:53.936Z,17.20
2022-08-19T03:13:20.987Z,17.10
2022-08-19T03:15:49.133Z,17.10
2022-08-19T03:18:18.129Z,17.10
2022-08-19T03:20:55.505Z,17.10
2022-08-19T03:23:23.508Z,17.10
2022-08-19T03:25:58.418Z,17.10
2022-08-19T03:28:40.687Z,17.10
2022-08-19T03:31:41.806Z,17.10
2022-08-19T03:33:59.482Z,17.10
2022-08-19T03:36:29.522Z,17.00
2022-08-19T03:39:01.824Z,17.00
2022-08-19T03:41:45.361Z,17.00
2022-08-19T03:44:19.067Z,16.90
2022-08-19T03:46:58.007Z,16.90
2022-08-19T03:49:32.136Z,16.90
2022-08-19T03:52:01.345Z,16.90
2022-08-19T03:54:29.251Z,16.90
2022-08-19T03:56:58.084Z,16.90
2022-08-19T03:59:34.469Z,16.80
2022-08-19T04:02:09.315Z,16.80
2022-08-19T04:04:41.303Z,16.70
2022-08-19T04:07:10.328Z,16.70
2022-08-19T04:09:37.534Z,16.70
2022-08-19T04:12:06.372Z,16.70
2022-08-19T04:14:34.578Z,16.70
2022-08-19T04:17:04.451Z,16.70
2022-08-19T04:19:33.215Z,16.80
2022-08-19T04:22:00.028Z,16.80
2022-08-19T04:24:26.885Z,16.70
2022-08-19T04:26:54.261Z,16.80
2022-08-19T04:29:26.230Z,16.70
2022-08-19T04:31:56.417Z,16.70
2022-08-19T04:34:26.810Z,16.70
2022-08-19T04:36:56.891Z,16.70
2022-08-19T04:39:49.445Z,16.70
2022-08-19T04:42:37.319Z,16.70
2022-08-19T04:45:15.471Z,16.70
2022-08-19T04:47:47.147Z,16.80
2022-08-19T04:50:28.123Z,16.70
2022-08-19T04:52:56.321Z,16.70
2022-08-19T04:55:26.232Z,16.70
2022-08-19T04:57:53.429Z,16.80
2022-08-19T05:00:20.346Z,16.90
2022-08-19T05:02:47.234Z,16.90
2022-08-19T05:05:14.962Z,16.90
2022-08-19T05:07:42.410Z,16.90
2022-08-19T05:10:10.128Z,17.00
2022-08-19T05:12:37.726Z,17.00
2022-08-19T05:15:06.952Z,17.00
2022-08-19T05:17:38.315Z,17.10
2022-08-19T05:20:27.116Z,17.10
2022-08-19T05:22:54.127Z,17.10
2022-08-19T05:25:23.120Z,17.20
2022-08-19T05:27:50.032Z,17.30
2022-08-19T05:30:18.489Z,17.40
2022-08-19T05:32:45.736Z,17.30
2022-08-19T05:35:13.131Z,17.30
2022-08-19T05:37:43.711Z,17.40
2022-08-19T05:40:11.389Z,17.50
2022-08-19T05:42:39.050Z,17.60
2022-08-19T05:45:07.757Z,17.60
2022-08-19T05:47:35.957Z,17.80
2022-08-19T05:50:09.892Z,17.90
2022-08-19T05:52:39.137Z,17.90
2022-08-19T05:55:11.352Z,17.90
2022-08-19T05:57:38.227Z,18.00
2022-08-19T06:00:12.187Z,18.10
2022-08-19T06:02:40.183Z,18.30
2022-08-19T06:05:10.185Z,18.70
2022-08-19T06:07:38.910Z,19.00
2022-08-19T06:10:10.221Z,18.90
2022-08-19T06:12:37.908Z,18.90
2022-08-19T06:15:11.123Z,19.00
2022-08-19T06:17:38.275Z,19.10
2022-08-19T06:20:10.212Z,19.10
2022-08-19T06:22:42.863Z,19.20
2022-08-19T06:25:10.499Z,19.70
2022-08-19T06:27:48.272Z,20.10
2022-08-19T06:30:25.299Z,20.40
2022-08-19T06:32:52.275Z,20.50
2022-08-19T06:35:20.222Z,20.40
2022-08-19T06:37:47.866Z,20.50
2022-08-19T06:40:15.035Z,20.50
2022-08-19T06:42:50.215Z,20.60
2022-08-19T06:45:24.577Z,20.50
2022-08-19T06:47:56.682Z,20.40
2022-08-19T06:50:26.486Z,20.40
2022-08-19T06:52:53.620Z,20.50
2022-08-19T06:55:21.288Z,20.80
2022-08-19T06:57:48.915Z,20.70
2022-08-19T07:00:16.713Z,20.60
2022-08-19T07:02:49.675Z,20.40
2022-08-19T07:05:20.277Z,20.30
2022-08-19T07:07:47.681Z,20.30
2022-08-19T07:10:14.847Z,20.40
2022-08-19T07:12:42.136Z,20.50
2022-08-19T07:15:10.764Z,20.40
2022-08-19T07:17:40.160Z,20.40
2022-08-19T07:20:10.772Z,20.30
2022-08-19T07:22:40.189Z,20.60
2022-08-19T07:25:10.230Z,20.70
2022-08-19T07:27:39.604Z,20.80
2022-08-19T07:30:11.624Z,21.00
2022-08-19T07:32:40.295Z,21.00
2022-08-19T07:35:08.275Z,20.80
2022-08-19T07:37:36.422Z,21.10
2022-08-19T07:40:06.787Z,21.20
2022-08-19T07:42:33.865Z,21.00
2022-08-19T07:45:00.719Z,21.10
2022-08-19T07:47:49.776Z,21.00
2022-08-19T07:50:17.167Z,21.00
2022-08-19T07:52:45.197Z,21.10
2022-08-19T07:55:42.261Z,21.10
2022-08-19T07:58:07.012Z,21.20
2022-08-19T08:00:34.603Z,21.40
2022-08-19T08:03:01.423Z,21.50
2022-08-19T08:05:47.061Z,21.50
2022-08-19T08:08:33.692Z,21.40
2022-08-19T08:11:01.816Z,21.60
2022-08-19T08:13:29.352Z,21.80
2022-08-19T08:15:57.989Z,21.80
2022-08-19T08:18:28.045Z,21.80
2022-08-19T08:20:58.999Z,21.60
2022-08-19T08:23:27.305Z,21.60
2022-08-19T08:25:57.918Z,21.80
2022-08-19T08:28:29.646Z,21.80
2022-08-19T08:30:58.463Z,21.90
2022-08-19T08:33:33.533Z,21.80
2022-08-19T08:36:09.352Z,21.90
2022-08-19T08:38:40.182Z,21.90
2022-08-19T08:41:47.468Z,21.90
2022-08-19T08:44:38.298Z,22.30
2022-08-19T08:47:16.182Z,22.60
2022-08-19T08:49:52.394Z,22.50
2022-08-19T08:52:32.014Z,22.70
2022-08-19T08:55:10.259Z,22.90
2022-08-19T08:57:55.663Z,22.80
2022-08-19T09:00:30.403Z,22.90
2022-08-19T09:03:00.495Z,23.00
2022-08-19T09:05:48.432Z,23.00
2022-08-19T09:08:33.783Z,23.00
2022-08-19T09:11:07.520Z,23.00
2022-08-19T09:14:49.264Z,22.90
2022-08-19T09:17:16.445Z,22.80
2022-08-19T09:20:09.417Z,22.90
2022-08-19T09:22:38.957Z,23.00
2022-08-19T09:25:09.967Z,23.10
2022-08-19T09:27:43.047Z,23.10
2022-08-19T09:30:22.802Z,23.20
2022-08-19T09:32:53.090Z,23.10
2022-08-19T09:35:23.039Z,23.00
2022-08-19T09:37:51.329Z,22.90
2022-08-19T09:40:26.574Z,22.90
2022-08-19T09:42:53.969Z,23.00
2022-08-19T09:45:22.854Z,23.10
2022-08-19T09:47:54.150Z,23.10
2022-08-19T09:50:24.327Z,23.20
2022-08-19T09:52:55.753Z,23.20
2022-08-19T09:55:31.030Z,23.30
2022-08-19T09:58:03.049Z,23.30
2022-08-19T10:00:31.765Z,23.40
2022-08-19T10:02:59.217Z,23.20
2022-08-19T10:05:44.495Z,23.10
2022-08-19T10:08:13.200Z,23.20
2022-08-19T10:10:46.585Z,23.30
2022-08-19T10:13:19.635Z,23.50
2022-08-19T10:15:48.189Z,23.70
2022-08-19T10:18:19.048Z,23.70
2022-08-19T10:20:51.594Z,23.60
2022-08-19T10:23:20.717Z,23.60
2022-08-19T10:25:48.769Z,23.70
2022-08-19T10:28:16.047Z,23.70
2022-08-19T10:30:42.960Z,23.60
2022-08-19T10:33:10.938Z,23.60
2022-08-19T10:35:42.831Z,23.80
2022-08-19T10:38:31.735Z,23.80
2022-08-19T10:41:11.347Z,24.00
2022-08-19T10:43:39.198Z,24.30
2022-08-19T10:46:14.177Z,24.30
2022-08-19T10:48:45.212Z,24.30
2022-08-19T10:51:32.427Z,24.30
2022-08-19T10:54:00.585Z,24.30
2022-08-19T10:56:48.140Z,24.10
2022-08-19T10:59:16.345Z,24.00
2022-08-19T11:01:46.129Z,24.00
2022-08-19T11:04:14.640Z,23.80
2022-08-19T11:06:44.306Z,24.00
2022-08-19T11:09:12.455Z,24.30
2022-08-19T11:11:43.232Z,24.50
2022-08-19T11:14:19.419Z,24.50
2022-08-19T11:16:46.257Z,24.50
2022-08-19T11:19:14.035Z,24.50
2022-08-19T11:21:47.826Z,24.60
2022-08-19T11:24:22.372Z,24.60
2022-08-19T11:26:57.697Z,24.60
2022-08-19T11:29:28.604Z,24.60
2022-08-19T11:31:55.825Z,24.60
2022-08-19T11:34:28.515Z,24.70
2022-08-19T11:37:00.452Z,24.50
2022-08-19T11:39:31.231Z,24.40
2022-08-19T11:42:03.853Z,24.30
2022-08-19T11:44:31.310Z,24.30
2022-08-19T11:46:58.675Z,24.20
2022-08-19T11:49:37.047Z,24.20
2022-08-19T11:52:04.181Z,24.30
2022-08-19T11:54:31.787Z,24.30
2022-08-19T11:56:58.913Z,24.30
2022-08-19T11:59:27.680Z,24.30
2022-08-19T12:01:54.498Z,24.40
2022-08-19T12:04:21.634Z,24.30
2022-08-19T12:06:49.012Z,24.30
2022-08-19T12:09:16.413Z,24.20
2022-08-19T12:11:43.239Z,24.10
2022-08-19T12:14:15.008Z,23.90
2022-08-19T12:16:48.571Z,24.00
2022-08-19T12:19:21.847Z,24.00
2022-08-19T12:21:50.936Z,24.10
2022-08-19T12:24:23.868Z,24.10
2022-08-19T12:26:52.963Z,24.20
2022-08-19T12:29:23.996Z,24.10
2022-08-19T12:31:52.127Z,24.30
2022-08-19T12:34:20.497Z,24.40
2022-08-19T12:36:50.009Z,24.40
2022-08-19T12:39:16.807Z,24.40
2022-08-19T12:41:51.377Z,24.40
2022-08-19T12:44:28.919Z,24.50
2022-08-19T12:46:57.511Z,24.50
2022-08-19T12:49:52.465Z,24.40
2022-08-19T12:52:16.212Z,24.40
2022-08-19T12:54:44.244Z,24.30
2022-08-19T12:57:11.816Z,24.20
2022-08-19T12:59:39.750Z,23.90
2022-08-19T13:02:08.635Z,23.80
2022-08-19T13:04:37.273Z,23.70
2022-08-19T13:07:04.515Z,23.70
2022-08-19T13:09:31.556Z,23.60
2022-08-19T13:11:58.367Z,23.50
2022-08-19T13:14:25.177Z,23.50
2022-08-19T13:16:53.908Z,23.60
2022-08-19T13:19:23.991Z,23.70
2022-08-19T13:21:51.954Z,23.70
2022-08-19T13:24:31.350Z,23.70
2022-08-19T13:27:01.820Z,23.70
2022-08-19T13:30:03.934Z,23.90
2022-08-19T13:32:49.922Z,23.90
2022-08-19T13:35:17.666Z,24.00
2022-08-19T13:37:46.246Z,24.00
2022-08-19T13:40:24.886Z,24.00
2022-08-19T13:42:56.169Z,24.00
2022-08-19T13:45:25.765Z,24.00
2022-08-19T13:47:59.548Z,23.90
2022-08-19T13:50:32.321Z,23.90
2022-08-19T13:53:00.371Z,23.90
2022-08-19T13:55:28.232Z,24.00
2022-08-19T13:57:58.791Z,23.90
2022-08-19T14:00:29.437Z,24.00
2022-08-19T14:02:58.442Z,24.10
2022-08-19T14:05:29.138Z,24.20
2022-08-19T14:07:57.050Z,24.10
2022-08-19T14:10:25.990Z,24.10
2022-08-19T14:12:59.166Z,24.00
2022-08-19T14:15:27.569Z,24.00
2022-08-19T14:17:55.153Z,23.90
2022-08-19T14:20:26.271Z,24.00
2022-08-19T14:22:55.646Z,24.10
2022-08-19T14:25:26.749Z,24.10
2022-08-19T14:27:54.221Z,24.20
2022-08-19T14:30:29.753Z,24.20
2022-08-19T14:32:59.125Z,24.00
2022-08-19T14:35:30.976Z,24.20
2022-08-19T14:37:58.870Z,24.20
2022-08-19T14:40:30.430Z,24.20
2022-08-19T14:43:04.608Z,24.10
2022-08-19T14:45:36.592Z,24.20
2022-08-19T14:48:05.884Z,24.10
2022-08-19T14:50:33.505Z,24.20
2022-08-19T14:53:12.417Z,24.00
2022-08-19T14:55:44.288Z,24.10
2022-08-19T14:58:29.405Z,24.10
2022-08-19T15:00:59.941Z,24.10
2022-08-19T15:03:28.948Z,24.20
2022-08-19T15:05:58.237Z,24.20
2022-08-19T15:08:26.374Z,24.20
2022-08-19T15:10:53.850Z,24.10
2022-08-19T15:13:20.703Z,24.10
2022-08-19T15:15:48.721Z,24.20
2022-08-19T15:18:15.796Z,24.30
2022-08-19T15:20:44.408Z,24.30
2022-08-19T15:23:18.836Z,24.20
2022-08-19T15:25:45.892Z,24.30
2022-08-19T15:28:13.142Z,24.30
2022-08-19T15:30:41.674Z,24.30
2022-08-19T15:33:09.070Z,24.20
2022-08-19T15:35:35.937Z,24.20
2022-08-19T15:38:02.941Z,24.20
2022-08-19T15:40:29.861Z,24.20
2022-08-19T15:42:57.239Z,24.20
2022-08-19T15:45:32.513Z,24.10
2022-08-19T15:48:01.839Z,24.00
2022-08-19T15:50:31.965Z,24.00
2022-08-19T15:53:05.692Z,24.00
2022-08-19T15:55:37.047Z,24.00
2022-08-19T15:58:33.325Z,24.10
2022-08-19T16:01:24.185Z,24.00
2022-08-19T16:04:14.891Z,24.00
2022-08-19T16:06:54.518Z,24.10
2022-08-19T16:09:28.765Z,24.00
2022-08-19T16:12:02.730Z,24.10
2022-08-19T16:14:33.320Z,24.20
2022-08-19T16:17:00.711Z,24.30
2022-08-19T16:19:27.688Z,24.30
2022-08-19T16:21:57.000Z,24.20
2022-08-19T16:24:27.446Z,24.40
2022-08-19T16:26:55.837Z,24.50
2022-08-19T16:29:34.608Z,24.30
2022-08-19T16:32:11.004Z,24.30
2022-08-19T16:34:41.342Z,24.20
2022-08-19T16:37:10.076Z,24.40
2022-08-19T16:39:37.778Z,24.30
2022-08-19T16:42:07.621Z,24.30
2022-08-19T16:44:39.020Z,24.20
2022-08-19T16:47:06.128Z,24.20
2022-08-19T16:49:55.280Z,24.20
2022-08-19T16:52:20.872Z,24.30
2022-08-19T16:54:48.485Z,24.00
2022-08-19T16:57:15.961Z,24.00
2022-08-19T16:59:48.735Z,24.00
2022-08-19T17:02:23.148Z,23.80
2022-08-19T17:04:58.286Z,23.80
2022-08-19T17:07:27.777Z,23.60
2022-08-19T17:09:55.264Z,23.80
2022-08-19T17:12:30.174Z,23.60
2022-08-19T17:15:00.976Z,23.60
2022-08-19T17:17:29.810Z,23.70
2022-08-19T17:19:59.101Z,23.80
2022-08-19T17:22:26.888Z,23.60
2022-08-19T17:24:56.181Z,23.50
2022-08-19T17:27:27.127Z,23.50
2022-08-19T17:29:59.814Z,23.40
2022-08-19T17:32:27.204Z,23.50
2022-08-19T17:34:54.276Z,23.60
2022-08-19T17:37:21.712Z,23.60
2022-08-19T17:39:49.094Z,23.60
2022-08-19T17:42:15.999Z,23.40
2022-08-19T17:44:42.852Z,23.40
2022-08-19T17:47:19.221Z,23.40
2022-08-19T17:49:46.123Z,23.60
2022-08-19T17:52:12.950Z,23.70
2022-08-19T17:54:39.962Z,23.40
2022-08-19T17:57:06.788Z,23.40
2022-08-19T17:59:33.655Z,23.40
2022-08-19T18:02:01.152Z,23.40
2022-08-19T18:04:29.679Z,23.40
2022-08-19T18:06:57.269Z,23.50
2022-08-19T18:09:41.879Z,23.70
2022-08-19T18:12:13.870Z,23.60
2022-08-19T18:14:41.947Z,23.70
2022-08-19T18:17:14.162Z,23.60
2022-08-19T18:19:43.950Z,23.20
2022-08-19T18:22:29.503Z,23.40
2022-08-19T18:24:58.193Z,23.30
2022-08-19T18:27:27.627Z,23.30
2022-08-19T18:29:58.970Z,23.10
2022-08-19T18:32:34.740Z,23.00
2022-08-19T18:35:06.436Z,23.00
2022-08-19T18:37:33.264Z,23.00
2022-08-19T18:40:18.414Z,22.80
2022-08-19T18:43:23.023Z,22.70
2022-08-19T18:46:09.391Z,22.60
2022-08-19T18:48:57.012Z,23.00
2022-08-19T18:51:28.476Z,23.00
2022-08-19T18:53:58.638Z,22.80
2022-08-19T18:56:31.683Z,22.80
2022-08-19T18:59:00.422Z,22.90
2022-08-19T19:01:36.579Z,23.10
2022-08-19T19:04:10.531Z,22.80
2022-08-19T19:06:40.779Z,22.70
2022-08-19T19:09:13.258Z,22.80
2022-08-19T19:11:44.040Z,23.00
2022-08-19T19:14:32.509Z,22.80
2022-08-19T19:17:06.527Z,23.00
2022-08-19T19:19:34.677Z,22.80
2022-08-19T19:22:04.566Z,22.80
2022-08-19T19:24:33.448Z,22.80
2022-08-19T19:27:06.639Z,22.70
2022-08-19T19:29:36.439Z,22.70
2022-08-19T19:32:11.129Z,23.00
2022-08-19T19:34:38.951Z,23.00
2022-08-19T19:37:05.925Z,22.80
2022-08-19T19:39:46.321Z,23.00
2022-08-19T19:42:21.018Z,22.70
2022-08-19T19:44:55.515Z,22.50
2022-08-19T19:47:24.303Z,22.20
2022-08-19T19:50:13.283Z,22.10
2022-08-19T19:52:40.535Z,22.00
2022-08-19T19:55:09.814Z,21.90
2022-08-19T19:57:39.216Z,21.80
2022-08-19T20:00:08.999Z,21.70
2022-08-19T20:02:35.776Z,21.70
2022-08-19T20:05:02.658Z,21.70
2022-08-19T20:07:47.971Z,21.70
2022-08-19T20:10:15.173Z,21.70
2022-08-19T20:12:41.967Z,21.70
2022-08-19T20:15:09.345Z,21.80
2022-08-19T20:17:41.181Z,21.70
2022-08-19T20:20:16.377Z,21.70
2022-08-19T20:22:44.259Z,21.80
2022-08-19T20:25:14.296Z,21.70
2022-08-19T20:27:42.272Z,21.70
2022-08-19T20:30:19.284Z,21.80
2022-08-19T20:32:48.683Z,21.90
2022-08-19T20:35:19.292Z,21.70
2022-08-19T20:37:46.347Z,21.70
2022-08-19T20:40:14.970Z,21.80
2022-08-19T20:42:44.051Z,21.60
2022-08-19T20:45:18.281Z,21.60
2022-08-19T20:48:04.295Z,21.60
2022-08-19T20:50:35.098Z,21.60
2022-08-19T20:53:13.048Z,21.60
2022-08-19T20:55:42.416Z,21.60
2022-08-19T20:58:10.079Z,21.60
2022-08-19T21:00:36.891Z,21.50
2022-08-19T21:03:03.785Z,21.50
2022-08-19T21:05:30.879Z,21.50
2022-08-19T21:07:58.297Z,21.40
2022-08-19T21:10:26.174Z,21.40
2022-08-19T21:12:53.447Z,21.60
2022-08-19T21:15:20.236Z,21.40
2022-08-19T21:17:48.622Z,21.40
2022-08-19T21:20:15.509Z,21.30
2022-08-19T21:22:42.280Z,21.30
2022-08-19T21:25:09.392Z,21.30
2022-08-19T21:27:36.163Z,21.30
2022-08-19T21:30:05.129Z,21.30
2022-08-19T21:32:31.909Z,21.30
2022-08-19T21:34:58.737Z,21.30
2022-08-19T21:37:26.294Z,21.30
2022-08-19T21:39:56.618Z,21.30
2022-08-19T21:42:24.736Z,21.30
2022-08-19T21:44:51.980Z,21.30
2022-08-19T21:47:19.851Z,21.30
2022-08-19T21:49:46.637Z,21.30
2022-08-19T21:52:13.883Z,21.30
2022-08-19T21:54:40.912Z,21.30
2022-08-19T21:57:10.502Z,21.30
2022-08-19T21:59:44.227Z,21.30
2022-08-19T22:02:22.328Z,21.30
2022-08-19T22:04:51.665Z,21.20
2022-08-19T22:07:20.945Z,21.20
2022-08-19T22:09:50.555Z,21.30
2022-08-19T22:12:31.540Z,21.30
2022-08-19T22:15:00.240Z,21.30
2022-08-19T22:17:27.995Z,21.20
2022-08-19T22:19:56.366Z,21.20
2022-08-19T22:22:30.513Z,21.20
2022-08-19T22:25:13.009Z,21.20
2022-08-19T22:27:57.569Z,21.20
2022-08-19T22:30:33.490Z,21.20
2022-08-19T22:33:05.363Z,21.20
2022-08-19T22:35:38.169Z,21.20
2022-08-19T22:38:07.221Z,21.10
2022-08-19T22:40:39.461Z,21.10
2022-08-19T22:43:15.961Z,21.10
2022-08-19T22:45:45.045Z,21.10
2022-08-19T22:48:15.208Z,21.10
2022-08-19T22:51:05.163Z,21.10
2022-08-19T22:53:35.093Z,21.10
2022-08-19T22:56:04.368Z,21.10
2022-08-19T22:58:31.241Z,21.10
2022-08-19T23:00:58.468Z,21.10
2022-08-19T23:03:26.349Z,21.10
2022-08-19T23:05:53.417Z,21.10
2022-08-19T23:08:20.164Z,21.10
2022-08-19T23:10:48.458Z,21.10
2022-08-19T23:13:17.146Z,21.10
2022-08-19T23:15:46.832Z,21.10
2022-08-19T23:18:15.227Z,21.10
2022-08-19T23:20:44.629Z,21.00
2022-08-19T23:23:18.707Z,21.10
2022-08-19T23:25:48.507Z,21.10
2022-08-19T23:28:33.994Z,21.10
2022-08-19T23:31:02.039Z,21.10
2022-08-19T23:33:50.743Z,21.00
2022-08-19T23:36:19.824Z,21.00
2022-08-19T23:38:49.047Z,21.00
2022-08-19T23:41:18.872Z,21.00
2022-08-19T23:43:46.147Z,21.00
2022-08-19T23:46:28.289Z,21.00
2022-08-19T23:48:56.859Z,21.00
2022-08-19T23:51:24.067Z,21.00
2022-08-19T23:53:50.890Z,21.10
2022-08-19T23:56:17.725Z,21.00
2022-08-19T23:58:45.431Z,21.00
